Etusivu
METAR-TAF:

METAR-TAF

Lentoasemat :

Grande Prairie, Alberta, Kanada

Leveyspiiri: 55-11N, Pituuspiiri: 118-53W, korkeus merenpinnasta: 666 m

Tämänhetkinen sää

Tämä raportti tehtiin 21 minuuttia sitten, kello 11.00 UTC
Tuuli 16 kn lännestä/lounaasta
Lämpötila 4°C
Kosteus 65%
Ilmanpaine 1006 hPa
Näkyvyys: 40.2 km
Muutamia pilviä 15000 ft:n korkeudessa

METAR: CYQU 181100Z 24016KT 25SM FEW150 04/M02 A2972 RMK AC1 SLP087

Aika: 04:21 (11:21 UTC)

Sääennuste

Tämä raportti tehtiin 4 tuntia ja 43 minuuttia sitten, kello 06.38 UTC
Ennuste voimassa 18. päivästä klo 07 UTC - 18. päivään klo 19 UTC
Tuuli 22 kn lännestä/lounaasta puuskistuen 32 kn:hen
Näkyvyys: 10 km
Hajanaisia pilviä 16000 ft:n korkeudessa
Tulossa
18. päivästä klo 08 UTC - 18. päivään klo 10 UTC
Tuuli 15 kn lännestä puuskistuen 25 kn:hen

TAF: CYQU 180638Z 1807/1819 25022G32KT P6SM SCT160 BECMG 1808/1810 26015G25KT RMK NXT FCST BY 181300Z

Säähavainnot ja -ennusteet yli 4000 lentoasemalta (METAR- ja TAF-raportit).

Käytössä olevat sääasemat on merkitty karttaan keltaisilla ja punaisilla pisteillä.

Aseta hiiri pisteen päälle nähdäksesi sääaseman nimen.

Klikkaa sitten nähdäksesi säähavainnot ja -ennusteet.

Kartan vaihtaminen: klikkaa mustalla rastilla varustettuja vihreitä pisteitä, niin voit zoomata sisään; viivalla varustettua vihreää pistettä, niin voit zoomata ulos tai vihreitä nuolia, niin pääset viereisille kartoille.


METAR-TAF: